EIKN/NOC METAR and TAF weather

Enter ICAO airport designator
Station Type Date Time Source
EIKN METAR 2020/11/19 09:30 UTC NOAA

EIKN 190930Z 27007KT 9999 FEW016 FEW020CB SCT220 04/02 Q1031 NOSIG


Station Type Date Time Source
EIKN Decoded METAR 2020/11/19 09:30 UTC NOAA

Connaught, Ireland (EIKN) 53-54-37N 008-49-05W
Nov 19, 2020 - 04:30 AM EST / 2020.11.19 0930 UTC
Wind: from the W (270 degrees) at 8 MPH (7 KT):0
Visibility: greater than 7 mile(s):0
Sky conditions: partly cloudy
Weather: Cumulonimbus clouds observed
Temperature: 39 F (4 C)
Dew Point: 35 F (2 C)
Relative Humidity: 86%
Pressure (altimeter): 30.45 in. Hg (1031 hPa)
ob: EIKN 190930Z 27007KT 9999 FEW016 FEW020CB SCT220 04/02 Q1031 NOSIG
cycle: 9

Station Type Date Time Source
EIKN TAF 2020/11/19 11:25 UTC NOAA

TAF EIKN 191120Z 1911/2006 CNL

Example: see airport list